sensor_id;sensor_type;location;lat;lon;timestamp;pressure;altitude;pressure_sealevel;temperature;humidity
48968;BME280;46511;53.148;8.204;2023-02-16T00:03:50;102253.00;;;7.70;100.00
48968;BME280;46511;53.148;8.204;2023-02-16T00:06:23;102254.75;;;7.71;100.00
48968;BME280;46511;53.148;8.204;2023-02-16T00:08:56;102250.38;;;7.70;100.00
48968;BME280;46511;53.148;8.204;2023-02-16T00:11:32;102240.88;;;7.60;100.00
48968;BME280;46511;53.148;8.204;2023-02-16T00:14:24;102239.97;;;7.61;100.00
48968;BME280;46511;53.148;8.204;2023-02-16T00:16:57;102243.38;;;7.66;100.00
48968;BME280;46511;53.148;8.204;2023-02-16T00:22:04;102235.84;;;7.50;100.00
48968;BME280;46511;53.148;8.204;2023-02-16T00:24:36;102229.47;;;7.58;100.00
48968;BME280;46511;53.148;8.204;2023-02-16T00:27:11;102231.25;;;7.56;100.00
48968;BME280;46511;53.148;8.204;2023-02-16T00:29:45;102232.28;;;7.51;100.00
48968;BME280;46511;53.148;8.204;2023-02-16T00:32:16;102225.19;;;7.53;100.00
48968;BME280;46511;53.148;8.204;2023-02-16T00:34:47;102221.66;;;7.52;100.00
48968;BME280;46511;53.148;8.204;2023-02-16T00:37:19;102224.69;;;7.34;100.00
48968;BME280;46511;53.148;8.204;2023-02-16T00:39:50;102213.00;;;7.44;100.00
48968;BME280;46511;53.148;8.204;2023-02-16T00:42:22;102227.09;;;7.44;100.00
48968;BME280;46511;53.148;8.204;2023-02-16T00:44:59;102233.19;;;7.48;100.00
48968;BME280;46511;53.148;8.204;2023-02-16T00:47:40;102232.25;;;7.52;100.00
48968;BME280;46511;53.148;8.204;2023-02-16T00:50:15;102228.69;;;7.53;100.00
48968;BME280;46511;53.148;8.204;2023-02-16T00:52:53;102232.38;;;7.44;100.00
48968;BME280;46511;53.148;8.204;2023-02-16T00:55:27;102233.38;;;7.40;100.00
48968;BME280;46511;53.148;8.204;2023-02-16T01:00:46;102227.28;;;7.35;100.00
48968;BME280;46511;53.148;8.204;2023-02-16T01:03:24;102221.88;;;7.41;100.00
48968;BME280;46511;53.148;8.204;2023-02-16T01:05:58;102230.69;;;7.42;100.00
48968;BME280;46511;53.148;8.204;2023-02-16T01:08:48;102221.13;;;7.35;100.00
48968;BME280;46511;53.148;8.204;2023-02-16T01:11:37;102225.56;;;7.34;100.00
48968;BME280;46511;53.148;8.204;2023-02-16T01:14:10;102231.00;;;7.27;100.00
48968;BME280;46511;53.148;8.204;2023-02-16T01:16:42;102229.13;;;7.32;100.00
48968;BME280;46511;53.148;8.204;2023-02-16T01:19:14;102224.22;;;7.13;100.00
48968;BME280;46511;53.148;8.204;2023-02-16T01:21:45;102230.34;;;7.15;100.00
48968;BME280;46511;53.148;8.204;2023-02-16T01:24:16;102224.03;;;7.23;100.00
48968;BME280;46511;53.148;8.204;2023-02-16T01:26:48;102230.25;;;7.19;100.00
48968;BME280;46511;53.148;8.204;2023-02-16T01:29:20;102218.09;;;7.11;100.00
48968;BME280;46511;53.148;8.204;2023-02-16T01:31:51;102221.69;;;7.07;100.00
48968;BME280;46511;53.148;8.204;2023-02-16T01:34:23;102233.81;;;7.18;100.00
48968;BME280;46511;53.148;8.204;2023-02-16T01:36:55;102220.81;;;7.07;100.00
48968;BME280;46511;53.148;8.204;2023-02-16T01:39:26;102217.44;;;6.99;100.00
48968;BME280;46511;53.148;8.204;2023-02-16T01:42:04;102221.81;;;7.01;100.00
48968;BME280;46511;53.148;8.204;2023-02-16T01:44:44;102217.34;;;7.05;100.00
48968;BME280;46511;53.148;8.204;2023-02-16T01:50:25;102212.13;;;7.02;100.00
48968;BME280;46511;53.148;8.204;2023-02-16T01:53:01;102215.81;;;6.92;100.00
48968;BME280;46511;53.148;8.204;2023-02-16T01:55:37;102212.31;;;6.90;100.00
48968;BME280;46511;53.148;8.204;2023-02-16T01:58:22;102213.16;;;6.93;100.00
48968;BME280;46511;53.148;8.204;2023-02-16T02:07:46;102213.16;;;6.93;100.00
48968;BME280;46511;53.148;8.204;2023-02-16T02:10:27;102215.06;;;6.85;100.00
48968;BME280;46511;53.148;8.204;2023-02-16T02:16:15;102214.16;;;6.86;100.00
48968;BME280;46511;53.148;8.204;2023-02-16T02:18:49;102207.97;;;6.87;100.00
48968;BME280;46511;53.148;8.204;2023-02-16T02:24:49;102210.00;;;6.73;100.00
48968;BME280;46511;53.148;8.204;2023-02-16T02:27:52;102199.50;;;6.70;100.00
48968;BME280;46511;53.148;8.204;2023-02-16T02:36:21;102202.16;;;6.68;100.00
48968;BME280;46511;53.148;8.204;2023-02-16T02:42:09;102181.00;;;6.70;100.00
48968;BME280;46511;53.148;8.204;2023-02-16T02:45:04;102180.25;;;6.62;100.00
48968;BME280;46511;53.148;8.204;2023-02-16T02:47:41;102174.13;;;6.61;100.00
48968;BME280;46511;53.148;8.204;2023-02-16T02:53:10;102175.03;;;6.58;100.00
48968;BME280;46511;53.148;8.204;2023-02-16T02:55:45;102168.09;;;6.54;100.00
48968;BME280;46511;53.148;8.204;2023-02-16T02:58:37;102161.91;;;6.55;100.00
48968;BME280;46511;53.148;8.204;2023-02-16T03:01:29;102168.16;;;6.50;100.00
48968;BME280;46511;53.148;8.204;2023-02-16T03:04:02;102172.38;;;6.60;100.00
48968;BME280;46511;53.148;8.204;2023-02-16T03:06:35;102164.50;;;6.58;100.00
48968;BME280;46511;53.148;8.204;2023-02-16T03:09:11;102165.34;;;6.59;100.00
48968;BME280;46511;53.148;8.204;2023-02-16T03:11:44;102152.25;;;6.54;100.00
48968;BME280;46511;53.148;8.204;2023-02-16T03:14:39;102150.53;;;6.50;100.00
48968;BME280;46511;53.148;8.204;2023-02-16T03:17:15;102148.56;;;6.62;100.00
48968;BME280;46511;53.148;8.204;2023-02-16T03:20:10;102138.09;;;6.58;100.00
48968;BME280;46511;53.148;8.204;2023-02-16T03:23:02;102134.78;;;6.47;100.00
48968;BME280;46511;53.148;8.204;2023-02-16T03:25:54;102130.22;;;6.55;100.00
48968;BME280;46511;53.148;8.204;2023-02-16T03:28:44;102130.09;;;6.62;100.00
48968;BME280;46511;53.148;8.204;2023-02-16T03:31:36;102133.59;;;6.62;100.00
48968;BME280;46511;53.148;8.204;2023-02-16T03:34:08;102139.72;;;6.66;100.00
48968;BME280;46511;53.148;8.204;2023-02-16T03:36:41;102148.66;;;6.58;100.00
48968;BME280;46511;53.148;8.204;2023-02-16T03:39:15;102148.66;;;6.58;100.00
48968;BME280;46511;53.148;8.204;2023-02-16T03:41:50;102148.75;;;6.52;100.00
48968;BME280;46511;53.148;8.204;2023-02-16T03:44:24;102138.91;;;6.61;100.00
48968;BME280;46511;53.148;8.204;2023-02-16T03:46:55;102139.09;;;6.51;100.00
48968;BME280;46511;53.148;8.204;2023-02-16T03:49:26;102139.94;;;6.53;100.00
48968;BME280;46511;53.148;8.204;2023-02-16T03:51:58;102138.19;;;6.52;100.00
48968;BME280;46511;53.148;8.204;2023-02-16T03:54:29;102142.50;;;6.58;100.00
48968;BME280;46511;53.148;8.204;2023-02-16T03:57:00;102142.56;;;6.55;100.00
48968;BME280;46511;53.148;8.204;2023-02-16T03:59:31;102145.19;;;6.53;100.00
48968;BME280;46511;53.148;8.204;2023-02-16T04:02:04;102142.50;;;6.58;100.00
48968;BME280;46511;53.148;8.204;2023-02-16T04:04:35;102141.63;;;6.57;100.00
48968;BME280;46511;53.148;8.204;2023-02-16T04:07:06;102146.81;;;6.64;100.00
48968;BME280;46511;53.148;8.204;2023-02-16T04:09:38;102146.06;;;6.55;100.00
48968;BME280;46511;53.148;8.204;2023-02-16T04:12:10;102148.72;;;6.55;100.00
48968;BME280;46511;53.148;8.204;2023-02-16T04:15:08;102149.56;;;6.57;100.00
48968;BME280;46511;53.148;8.204;2023-02-16T04:17:42;102147.88;;;6.52;100.00
48968;BME280;46511;53.148;8.204;2023-02-16T04:20:15;102145.13;;;6.58;100.00
48968;BME280;46511;53.148;8.204;2023-02-16T04:22:48;102152.28;;;6.51;100.00
48968;BME280;46511;53.148;8.204;2023-02-16T04:25:20;102151.28;;;6.58;100.00
48968;BME280;46511;53.148;8.204;2023-02-16T04:27:52;102156.66;;;6.52;100.00
48968;BME280;46511;53.148;8.204;2023-02-16T04:30:24;102155.91;;;6.47;100.00
48968;BME280;46511;53.148;8.204;2023-02-16T04:32:57;102153.25;;;6.47;100.00
48968;BME280;46511;53.148;8.204;2023-02-16T04:35:29;102154.25;;;6.40;100.00
48968;BME280;46511;53.148;8.204;2023-02-16T04:38:00;102147.03;;;6.50;100.00
48968;BME280;46511;53.148;8.204;2023-02-16T04:40:31;102141.84;;;6.44;100.00
48968;BME280;46511;53.148;8.204;2023-02-16T04:43:03;102142.72;;;6.44;100.00
48968;BME280;46511;53.148;8.204;2023-02-16T04:45:34;102149.91;;;6.38;100.00
48968;BME280;46511;53.148;8.204;2023-02-16T04:48:05;102137.63;;;6.37;100.00
48968;BME280;46511;53.148;8.204;2023-02-16T04:50:36;102141.97;;;6.39;100.00
48968;BME280;46511;53.148;8.204;2023-02-16T04:53:08;102132.97;;;6.49;100.00
48968;BME280;46511;53.148;8.204;2023-02-16T04:55:39;102141.63;;;6.57;100.00
48968;BME280;46511;53.148;8.204;2023-02-16T04:58:16;102130.25;;;6.54;100.00
48968;BME280;46511;53.148;8.204;2023-02-16T05:00:47;102131.13;;;6.54;100.00
48968;BME280;46511;53.148;8.204;2023-02-16T05:03:18;102127.47;;;6.62;100.00
48968;BME280;46511;53.148;8.204;2023-02-16T05:05:50;102120.22;;;6.73;100.00
48968;BME280;46511;53.148;8.204;2023-02-16T05:08:21;102121.06;;;6.75;100.00
48968;BME280;46511;53.148;8.204;2023-02-16T05:10:52;102118.47;;;6.72;100.00
48968;BME280;46511;53.148;8.204;2023-02-16T05:13:42;102122.97;;;6.67;100.00
48968;BME280;46511;53.148;8.204;2023-02-16T05:16:32;102109.66;;;6.73;100.00
48968;BME280;46511;53.148;8.204;2023-02-16T05:19:03;102111.84;;;6.96;100.00
48968;BME280;46511;53.148;8.204;2023-02-16T05:21:34;102117.91;;;6.99;100.00
48968;BME280;46511;53.148;8.204;2023-02-16T05:24:06;102119.34;;;7.15;100.00
48968;BME280;46511;53.148;8.204;2023-02-16T05:26:39;102114.91;;;7.16;100.00
48968;BME280;46511;53.148;8.204;2023-02-16T05:29:10;102116.63;;;7.19;100.00
48968;BME280;46511;53.148;8.204;2023-02-16T05:31:42;102119.94;;;7.28;100.00
48968;BME280;46511;53.148;8.204;2023-02-16T05:34:14;102114.84;;;7.21;100.00
48968;BME280;46511;53.148;8.204;2023-02-16T05:36:45;102112.72;;;7.36;100.00
48968;BME280;46511;53.148;8.204;2023-02-16T05:39:16;102112.03;;;7.27;100.00
48968;BME280;46511;53.148;8.204;2023-02-16T05:41:48;102105.66;;;7.37;100.00
48968;BME280;46511;53.148;8.204;2023-02-16T05:44:19;102108.03;;;7.09;100.00
48968;BME280;46511;53.148;8.204;2023-02-16T05:46:51;102121.75;;;7.26;100.00
48968;BME280;46511;53.148;8.204;2023-02-16T05:49:22;102111.19;;;7.26;100.00
48968;BME280;46511;53.148;8.204;2023-02-16T05:51:53;102116.47;;;7.26;100.00
48968;BME280;46511;53.148;8.204;2023-02-16T05:54:26;102116.69;;;7.15;100.00
48968;BME280;46511;53.148;8.204;2023-02-16T05:56:57;102121.16;;;7.13;100.00
48968;BME280;46511;53.148;8.204;2023-02-16T05:59:29;102112.44;;;7.08;100.00
48968;BME280;46511;53.148;8.204;2023-02-16T06:02:00;102113.94;;;7.22;100.00
48968;BME280;46511;53.148;8.204;2023-02-16T06:04:31;102112.34;;;7.13;100.00
48968;BME280;46511;53.148;8.204;2023-02-16T06:07:02;102116.03;;;7.06;100.00
48968;BME280;46511;53.148;8.204;2023-02-16T06:09:34;102117.59;;;7.14;100.00
48968;BME280;46511;53.148;8.204;2023-02-16T06:12:05;102103.28;;;7.25;100.00
48968;BME280;46511;53.148;8.204;2023-02-16T06:14:36;102115.41;;;7.35;100.00
48968;BME280;46511;53.148;8.204;2023-02-16T06:17:08;102102.25;;;7.32;100.00
48968;BME280;46511;53.148;8.204;2023-02-16T06:19:39;102140.59;;;7.51;100.00
48968;BME280;46511;53.148;8.204;2023-02-16T06:22:10;102131.34;;;7.70;100.00
48968;BME280;46511;53.148;8.204;2023-02-16T06:24:41;102118.81;;;7.40;100.00
48968;BME280;46511;53.148;8.204;2023-02-16T06:27:13;102124.22;;;7.72;100.00
48968;BME280;46511;53.148;8.204;2023-02-16T06:29:44;102134.03;;;7.69;100.00
48968;BME280;46511;53.148;8.204;2023-02-16T06:32:15;102129.19;;;7.86;100.00
48968;BME280;46511;53.148;8.204;2023-02-16T06:34:48;102133.91;;;7.73;100.00
48968;BME280;46511;53.148;8.204;2023-02-16T06:37:19;102138.75;;;7.92;100.00
48968;BME280;46511;53.148;8.204;2023-02-16T06:39:52;102138.69;;;7.95;100.00
48968;BME280;46511;53.148;8.204;2023-02-16T06:42:23;102128.47;;;7.80;100.00
48968;BME280;46511;53.148;8.204;2023-02-16T06:44:54;102135.63;;;7.74;100.00
48968;BME280;46511;53.148;8.204;2023-02-16T06:47:26;102143.03;;;7.60;100.00
48968;BME280;46511;53.148;8.204;2023-02-16T06:49:57;102135.94;;;7.62;100.00
48968;BME280;46511;53.148;8.204;2023-02-16T06:52:28;102132.50;;;7.96;100.00
48968;BME280;46511;53.148;8.204;2023-02-16T06:54:59;102130.31;;;7.76;100.00
48968;BME280;46511;53.148;8.204;2023-02-16T06:57:31;102133.59;;;7.86;100.00
48968;BME280;46511;53.148;8.204;2023-02-16T07:00:03;102132.25;;;8.07;100.00
48968;BME280;46511;53.148;8.204;2023-02-16T07:02:36;102128.81;;;8.01;100.00
48968;BME280;46511;53.148;8.204;2023-02-16T07:05:07;102127.22;;;7.96;100.00
48968;BME280;46511;53.148;8.204;2023-02-16T07:07:38;102134.69;;;7.79;100.00
48968;BME280;46511;53.148;8.204;2023-02-16T07:10:10;102131.88;;;7.85;100.00
48968;BME280;46511;53.148;8.204;2023-02-16T07:12:41;102120.53;;;7.80;100.00
48968;BME280;46511;53.148;8.204;2023-02-16T07:15:12;102127.31;;;7.91;100.00
48968;BME280;46511;53.148;8.204;2023-02-16T07:17:44;102122.75;;;7.98;100.00
48968;BME280;46511;53.148;8.204;2023-02-16T07:20:15;102125.44;;;7.96;100.00
48968;BME280;46511;53.148;8.204;2023-02-16T07:22:47;102134.34;;;7.92;100.00
48968;BME280;46511;53.148;8.204;2023-02-16T07:25:19;102128.31;;;7.86;100.00
48968;BME280;46511;53.148;8.204;2023-02-16T07:27:50;102139.50;;;7.98;100.00
48968;BME280;46511;53.148;8.204;2023-02-16T07:30:22;102138.44;;;8.06;100.00
48968;BME280;46511;53.148;8.204;2023-02-16T07:32:53;102136.31;;;8.20;100.00
48968;BME280;46511;53.148;8.204;2023-02-16T07:35:24;102131.00;;;8.20;100.00
48968;BME280;46511;53.148;8.204;2023-02-16T07:37:55;102136.44;;;8.49;100.00
48968;BME280;46511;53.148;8.204;2023-02-16T07:40:27;102142.84;;;8.41;100.00
48968;BME280;46511;53.148;8.204;2023-02-16T07:42:58;102139.38;;;8.39;100.00
48968;BME280;46511;53.148;8.204;2023-02-16T07:45:31;102136.31;;;8.55;100.00
48968;BME280;46511;53.148;8.204;2023-02-16T07:48:03;102125.75;;;8.54;100.00
48968;BME280;46511;53.148;8.204;2023-02-16T07:50:35;102133.19;;;8.40;100.00
48968;BME280;46511;53.148;8.204;2023-02-16T07:53:07;102124.69;;;8.59;100.00
48968;BME280;46511;53.148;8.204;2023-02-16T07:55:39;102129.03;;;8.64;100.00
48968;BME280;46511;53.148;8.204;2023-02-16T07:58:12;102131.56;;;8.32;100.00
48968;BME280;46511;53.148;8.204;2023-02-16T08:01:07;102134.63;;;8.53;100.00
48968;BME280;46511;53.148;8.204;2023-02-16T08:03:40;102128.84;;;8.70;100.00
48968;BME280;46511;53.148;8.204;2023-02-16T08:06:11;102122.06;;;8.91;100.00
48968;BME280;46511;53.148;8.204;2023-02-16T08:08:44;102136.84;;;8.68;100.00
48968;BME280;46511;53.148;8.204;2023-02-16T08:11:19;102129.44;;;8.79;100.00
48968;BME280;46511;53.148;8.204;2023-02-16T08:13:52;102131.78;;;8.90;100.00
48968;BME280;46511;53.148;8.204;2023-02-16T08:16:25;102137.25;;;8.85;100.00
48968;BME280;46511;53.148;8.204;2023-02-16T08:18:58;102144.19;;;8.57;100.00
48968;BME280;46511;53.148;8.204;2023-02-16T08:21:31;102138.03;;;8.56;100.00
48968;BME280;46511;53.148;8.204;2023-02-16T08:24:04;102148.47;;;8.63;100.00
48968;BME280;46511;53.148;8.204;2023-02-16T08:26:38;102148.63;;;8.56;100.00
48968;BME280;46511;53.148;8.204;2023-02-16T08:29:11;102152.56;;;8.74;100.00
48968;BME280;46511;53.148;8.204;2023-02-16T08:31:43;102154.66;;;8.63;100.00
48968;BME280;46511;53.148;8.204;2023-02-16T08:34:18;102145.84;;;8.61;100.00
48968;BME280;46511;53.148;8.204;2023-02-16T08:36:51;102159.06;;;8.63;100.00
48968;BME280;46511;53.148;8.204;2023-02-16T08:39:27;102155.75;;;8.54;100.00
48968;BME280;46511;53.148;8.204;2023-02-16T08:42:01;102147.44;;;9.01;100.00
48968;BME280;46511;53.148;8.204;2023-02-16T08:44:33;102147.50;;;8.98;100.00
48968;BME280;46511;53.148;8.204;2023-02-16T08:47:05;102146.31;;;9.39;100.00
48968;BME280;46511;53.148;8.204;2023-02-16T08:49:36;102143.09;;;9.57;100.00
48968;BME280;46511;53.148;8.204;2023-02-16T08:52:09;102138.97;;;9.47;100.00
48968;BME280;46511;53.148;8.204;2023-02-16T08:54:42;102145.34;;;9.69;100.00
48968;BME280;46511;53.148;8.204;2023-02-16T08:57:13;102137.44;;;9.96;100.00
48968;BME280;46511;53.148;8.204;2023-02-16T08:59:45;102133.47;;;9.81;100.00
48968;BME280;46511;53.148;8.204;2023-02-16T09:02:36;102144.38;;;9.72;100.00
48968;BME280;46511;53.148;8.204;2023-02-16T09:05:08;102136.72;;;10.17;100.00
48968;BME280;46511;53.148;8.204;2023-02-16T09:07:39;102136.63;;;10.20;100.00
48968;BME280;46511;53.148;8.204;2023-02-16T09:10:11;102142.63;;;9.99;100.00
48968;BME280;46511;53.148;8.204;2023-02-16T09:12:43;102154.69;;;10.37;100.00
48968;BME280;46511;53.148;8.204;2023-02-16T09:15:18;102150.97;;;10.41;100.00
48968;BME280;46511;53.148;8.204;2023-02-16T09:17:50;102157.47;;;10.33;100.00
48968;BME280;46511;53.148;8.204;2023-02-16T09:20:22;102148.63;;;10.34;100.00
48968;BME280;46511;53.148;8.204;2023-02-16T09:22:53;102151.97;;;10.11;100.00
48968;BME280;46511;53.148;8.204;2023-02-16T09:25:25;102152.38;;;10.26;100.00
48968;BME280;46511;53.148;8.204;2023-02-16T09:27:56;102153.81;;;11.11;100.00
48968;BME280;46511;53.148;8.204;2023-02-16T09:30:27;102146.41;;;11.20;100.00
48968;BME280;46511;53.148;8.204;2023-02-16T09:32:59;102146.94;;;10.81;100.00
48968;BME280;46511;53.148;8.204;2023-02-16T09:35:30;102153.47;;;11.21;100.00
48968;BME280;46511;53.148;8.204;2023-02-16T09:38:02;102160.53;;;10.97;100.00
48968;BME280;46511;53.148;8.204;2023-02-16T09:40:35;102165.59;;;10.54;100.00
48968;BME280;46511;53.148;8.204;2023-02-16T09:43:08;102169.78;;;10.62;100.00
48968;BME280;46511;53.148;8.204;2023-02-16T09:45:50;102165.19;;;10.40;100.00
48968;BME280;46511;53.148;8.204;2023-02-16T09:48:37;102154.72;;;10.62;100.00
48968;BME280;46511;53.148;8.204;2023-02-16T09:51:16;102160.31;;;11.03;100.00
48968;BME280;46511;53.148;8.204;2023-02-16T09:53:58;102164.06;;;10.97;100.00
48968;BME280;46511;53.148;8.204;2023-02-16T09:56:37;102170.81;;;10.82;100.00
48968;BME280;46511;53.148;8.204;2023-02-16T09:59:23;102169.78;;;10.86;100.00
48968;BME280;46511;53.148;8.204;2023-02-16T10:07:46;102177.69;;;10.88;100.00
48968;BME280;46511;53.148;8.204;2023-02-16T10:10:28;102171.78;;;10.80;100.00
48968;BME280;46511;53.148;8.204;2023-02-16T10:13:06;102165.69;;;10.51;100.00
48968;BME280;46511;53.148;8.204;2023-02-16T10:15:45;102178.00;;;10.79;100.00
48968;BME280;46511;53.148;8.204;2023-02-16T10:18:24;102169.03;;;10.83;100.00
48968;BME280;46511;53.148;8.204;2023-02-16T10:21:02;102162.03;;;10.55;100.00
48968;BME280;46511;53.148;8.204;2023-02-16T10:26:15;102168.31;;;10.78;100.00
48968;BME280;46511;53.148;8.204;2023-02-16T10:29:00;102179.75;;;10.80;100.00
48968;BME280;46511;53.148;8.204;2023-02-16T10:31:38;102172.47;;;10.35;100.00
48968;BME280;46511;53.148;8.204;2023-02-16T10:37:18;102174.25;;;10.59;100.00
48968;BME280;46511;53.148;8.204;2023-02-16T10:40:01;102180.63;;;10.55;100.00
48968;BME280;46511;53.148;8.204;2023-02-16T10:43:14;102175.44;;;10.51;100.00
48968;BME280;46511;53.148;8.204;2023-02-16T10:46:08;102179.41;;;10.39;100.00
48968;BME280;46511;53.148;8.204;2023-02-16T10:48:42;102176.44;;;10.48;100.00
48968;BME280;46511;53.148;8.204;2023-02-16T10:51:16;102178.06;;;10.77;100.00
48968;BME280;46511;53.148;8.204;2023-02-16T10:53:49;102183.25;;;10.82;100.00
48968;BME280;46511;53.148;8.204;2023-02-16T10:56:44;102170.09;;;10.52;100.00
48968;BME280;46511;53.148;8.204;2023-02-16T11:02:16;102168.63;;;10.44;100.00
48968;BME280;46511;53.148;8.204;2023-02-16T11:05:00;102177.66;;;10.38;100.00
48968;BME280;46511;53.148;8.204;2023-02-16T11:07:31;102182.69;;;10.19;100.00
48968;BME280;46511;53.148;8.204;2023-02-16T11:10:17;102183.66;;;10.17;100.00
48968;BME280;46511;53.148;8.204;2023-02-16T11:12:55;102179.06;;;10.22;100.00
48968;BME280;46511;53.148;8.204;2023-02-16T11:15:28;102186.84;;;10.28;100.00
48968;BME280;46511;53.148;8.204;2023-02-16T11:18:01;102183.53;;;10.48;100.00
48968;BME280;46511;53.148;8.204;2023-02-16T11:25:57;102185.38;;;9.62;100.00
48968;BME280;46511;53.148;8.204;2023-02-16T11:28:43;102185.66;;;9.53;100.00
48968;BME280;46511;53.148;8.204;2023-02-16T11:37:02;102183.38;;;10.26;100.00
48968;BME280;46511;53.148;8.204;2023-02-16T11:39:37;102172.03;;;10.47;100.00
48968;BME280;46511;53.148;8.204;2023-02-16T11:42:25;102156.94;;;10.98;100.00
48968;BME280;46511;53.148;8.204;2023-02-16T11:45:01;102173.56;;;11.04;100.00
48968;BME280;46511;53.148;8.204;2023-02-16T11:47:35;102172.69;;;10.79;100.00
48968;BME280;46511;53.148;8.204;2023-02-16T11:52:55;102169.78;;;10.62;100.00
48968;BME280;46511;53.148;8.204;2023-02-16T11:55:44;102175.84;;;10.65;100.00
48968;BME280;46511;53.148;8.204;2023-02-16T12:00:51;102168.47;;;10.98;100.00
48968;BME280;46511;53.148;8.204;2023-02-16T12:09:11;102158.47;;;10.80;100.00
48968;BME280;46511;53.148;8.204;2023-02-16T12:11:59;102165.22;;;10.65;100.00
48968;BME280;46511;53.148;8.204;2023-02-16T12:20:29;102162.59;;;10.11;100.00
48968;BME280;46511;53.148;8.204;2023-02-16T12:23:30;102155.16;;;10.48;100.00
48968;BME280;46511;53.148;8.204;2023-02-16T12:26:15;102144.31;;;10.29;100.00
48968;BME280;46511;53.148;8.204;2023-02-16T12:34:37;102143.94;;;10.40;100.00
48968;BME280;46511;53.148;8.204;2023-02-16T12:40:05;102130.84;;;10.08;100.00
48968;BME280;46511;53.148;8.204;2023-02-16T12:42:49;102126.34;;;10.63;100.00
48968;BME280;46511;53.148;8.204;2023-02-16T12:45:30;102121.72;;;10.68;100.00
48968;BME280;46511;53.148;8.204;2023-02-16T12:50:56;102105.44;;;10.27;100.00
48968;BME280;46511;53.148;8.204;2023-02-16T12:53:39;102091.88;;;10.59;100.00
48968;BME280;46511;53.148;8.204;2023-02-16T12:56:29;102089.81;;;10.68;100.00
48968;BME280;46511;53.148;8.204;2023-02-16T12:59:53;102089.88;;;10.41;100.00
48968;BME280;46511;53.148;8.204;2023-02-16T13:02:19;102088.28;;;10.37;100.00
48968;BME280;46511;53.148;8.204;2023-02-16T13:05:01;102083.75;;;10.13;100.00
48968;BME280;46511;53.148;8.204;2023-02-16T13:07:40;102094.34;;;9.88;100.00
48968;BME280;46511;53.148;8.204;2023-02-16T13:13:01;102083.06;;;10.08;100.00
48968;BME280;46511;53.148;8.204;2023-02-16T13:20:51;102085.16;;;9.98;100.00
48968;BME280;46511;53.148;8.204;2023-02-16T13:29:26;102096.50;;;9.75;100.00
48968;BME280;46511;53.148;8.204;2023-02-16T13:49:23;102090.28;;;9.50;100.00
48968;BME280;46511;53.148;8.204;2023-02-16T13:52:03;102093.84;;;9.49;100.00
48968;BME280;46511;53.148;8.204;2023-02-16T13:54:37;102093.50;;;9.59;100.00
48968;BME280;46511;53.148;8.204;2023-02-16T13:57:12;102093.16;;;9.70;100.00
48968;BME280;46511;53.148;8.204;2023-02-16T13:59:48;102084.63;;;9.60;100.00
48968;BME280;46511;53.148;8.204;2023-02-16T14:05:23;102071.75;;;9.76;100.00
48968;BME280;46511;53.148;8.204;2023-02-16T14:08:08;102076.63;;;9.88;100.00
48968;BME280;46511;53.148;8.204;2023-02-16T14:11:02;102074.66;;;10.20;100.00
48968;BME280;46511;53.148;8.204;2023-02-16T14:18:53;102071.59;;;10.32;100.00
48968;BME280;46511;53.148;8.204;2023-02-16T14:21:47;102070.72;;;10.07;100.00
48968;BME280;46511;53.148;8.204;2023-02-16T14:27:04;102063.75;;;10.02;100.00
48968;BME280;46511;53.148;8.204;2023-02-16T14:29:37;102065.78;;;9.94;100.00
48968;BME280;46511;53.148;8.204;2023-02-16T14:32:25;102056.88;;;9.70;100.00
48968;BME280;46511;53.148;8.204;2023-02-16T14:35:04;102062.38;;;9.91;100.00
48968;BME280;46511;53.148;8.204;2023-02-16T14:37:40;102066.88;;;10.15;100.00
48968;BME280;46511;53.148;8.204;2023-02-16T14:40:22;102057.19;;;10.14;100.00
48968;BME280;46511;53.148;8.204;2023-02-16T14:43:13;102060.19;;;10.03;100.00
48968;BME280;46511;53.148;8.204;2023-02-16T15:00:49;102043.91;;;10.39;100.00
48968;BME280;46511;53.148;8.204;2023-02-16T15:03:40;102034.75;;;10.23;100.00
48968;BME280;46511;53.148;8.204;2023-02-16T15:09:24;102038.41;;;10.45;100.00
48968;BME280;46511;53.148;8.204;2023-02-16T15:12:03;102035.75;;;10.19;100.00
48968;BME280;46511;53.148;8.204;2023-02-16T15:14:54;102041.88;;;10.21;100.00
48968;BME280;46511;53.148;8.204;2023-02-16T15:17:39;102026.38;;;10.35;100.00
48968;BME280;46511;53.148;8.204;2023-02-16T15:20:28;102030.31;;;10.48;100.00
48968;BME280;46511;53.148;8.204;2023-02-16T15:23:14;102027.22;;;10.36;100.00
48968;BME280;46511;53.148;8.204;2023-02-16T15:25:58;102032.72;;;10.05;100.00
48968;BME280;46511;53.148;8.204;2023-02-16T15:28:33;102033.09;;;10.19;100.00
48968;BME280;46511;53.148;8.204;2023-02-16T15:31:15;102018.31;;;9.85;100.00
48968;BME280;46511;53.148;8.204;2023-02-16T15:33:55;102023.53;;;10.15;100.00
48968;BME280;46511;53.148;8.204;2023-02-16T15:36:32;102024.84;;;10.01;100.00
48968;BME280;46511;53.148;8.204;2023-02-16T15:41:39;102028.38;;;10.28;100.00
48968;BME280;46511;53.148;8.204;2023-02-16T15:44:28;102023.66;;;10.10;100.00
48968;BME280;46511;53.148;8.204;2023-02-16T15:49:44;102028.75;;;9.91;100.00
48968;BME280;46511;53.148;8.204;2023-02-16T15:52:19;102037.00;;;10.09;100.00
48968;BME280;46511;53.148;8.204;2023-02-16T15:54:59;102030.09;;;9.78;100.00
48968;BME280;46511;53.148;8.204;2023-02-16T15:57:33;102040.34;;;9.62;100.00
48968;BME280;46511;53.148;8.204;2023-02-16T16:00:14;102031.50;;;9.88;100.00
48968;BME280;46511;53.148;8.204;2023-02-16T16:02:50;102036.50;;;9.97;100.00
48968;BME280;46511;53.148;8.204;2023-02-16T16:05:25;102035.34;;;9.80;100.00
48968;BME280;46511;53.148;8.204;2023-02-16T16:07:58;102022.00;;;9.81;100.00
48968;BME280;46511;53.148;8.204;2023-02-16T16:10:32;102022.63;;;9.89;100.00